Flight Track Log - Related Links

Times and Time Zones

All times are in EDT time to prevent confusion due to time zone crossing. See the UCA5016 flight status page for this flight to view local times or setup timezone preferences in your user account.

Time Position Orientation Groundspeed Altitude Reporting Facility
EDT Latitude Longitude Course Direction KTS MPH feet Rate Location/Type
Thu 11:45:02 AM 40.8256 -77.8714 144° Southeast 252 290 2,800  Level New York Center
Thu 11:46:02 AM 40.7803 -77.8283 144° Southeast 203 234 4,600 1,700 Climbing New York Center
Thu 11:47:02 AM 40.7392 -77.7803 138° Southeast 189 217 6,200 1,700 Climbing New York Center
Thu 11:48:02 AM 40.6939 -77.7347 143° Southeast 194 223 8,000 1,650 Climbing New York Center
Thu 11:49:02 AM 40.6467 -77.6889 144° Southeast 206 237 9,500 1,450 Climbing New York Center
Thu 11:50:00 AM 40.4061 -77.7561 144° Southeast  Level Estimated
Thu 11:50:02 AM 40.5931 -77.6450 148° Southeast 222 255 10,900  Level New York Center
Thu 11:51:02 AM 40.5319 -77.6197 163° South 239 275 11,000 50 Climbing New York Center
Thu 11:52:02 AM 40.4528 -77.5819 160° South 267 307 11,000 -50 Level New York Center
Thu 11:53:02 AM 40.3897 -77.5514 160° South 272 313 10,900  Descending New York Center
Thu 11:54:02 AM 40.3086 -77.5133 160° South 279 321 11,000 50 Climbing New York Center
Thu 11:55:02 AM 40.2394 -77.4822 161° South 279 321 11,000  Level New York Center
Thu 11:57:16 AM 40.0667 -77.4000 160° South 284 327 11,000 -31 Level Potomac TRACON
Thu 11:58:17 AM 40.0000 -77.3667 159° South 276 318 10,900 -545 Descending Potomac TRACON
Thu 11:59:17 AM 39.9333 -77.3500 169° South 259 298 9,900 -950 Descending Potomac TRACON
Thu 12:00:17 PM 39.8500 -77.3500 180° South 247 284 9,000 -450 Descending Potomac TRACON
Thu 12:01:17 PM 39.7833 -77.3500 180° South 251 289 9,000  Level Potomac TRACON
Thu 12:02:11 PM 39.7167 -77.3500 180° South 256 295 9,000  Level Potomac TRACON
Thu 12:03:17 PM 39.6500 -77.3500 180° South 256 295 9,000  Level Potomac TRACON
Thu 12:04:17 PM 39.5667 -77.3667 189° South 263 303 9,000 -400 Level Potomac TRACON
Thu 12:05:17 PM 39.5000 -77.3667 180° South 272 313 8,200 -887 Descending Potomac TRACON
Thu 12:06:12 PM 39.4333 -77.3667 180° South 264 304 7,300 -939 Descending Potomac TRACON
Thu 12:07:12 PM 39.3667 -77.3667 180° South 232 267 6,400 -900 Descending Potomac TRACON
Thu 12:08:12 PM 39.3000 -77.3667 180° South 204 235 5,500 -800 Descending Potomac TRACON
Thu 12:09:12 PM 39.2500 -77.3667 180° South 229 264 4,800 -714 Descending Potomac TRACON
Thu 12:10:18 PM 39.1833 -77.3500 169° South 224 258 4,000 -381 Descending Potomac TRACON
Thu 12:11:18 PM 39.1167 -77.3500 180° South 217 250 4,000 -250 Level Potomac TRACON
Thu 12:12:18 PM 39.0500 -77.3500 180° South 215 247 3,500 -526 Descending Potomac TRACON
Thu 12:13:12 PM 39.0000 -77.3500 180° South 214 246 3,000 -250 Descending Potomac TRACON
Thu 12:14:18 PM 38.9333 -77.3500 180° South 205 236 3,000  Level Potomac TRACON
Thu 12:15:12 PM 38.8833 -77.3500 180° South 209 241 3,000 -200 Level Potomac TRACON
Thu 12:16:18 PM 38.8167 -77.3667 191° South 222 255 2,600 -500 Descending Potomac TRACON
Thu 12:17:12 PM 38.8000 -77.4167 247° West 190 219 2,000 -350 Descending Potomac TRACON
Thu 12:18:18 PM 38.8500 -77.4333 345° North 167 192 1,900 -400 Descending Potomac TRACON
Thu 12:19:12 PM 38.8833 -77.4333 360° North 125 144 1,200 -684 Descending Potomac TRACON
Thu 12:20:12 PM 38.9167 -77.4333 360° North 112 129 600 -600 Descending Potomac TRACON
Thu 12:22:00 PM 38.9333 -77.4500 303° West  Level FlightAware Approximate
Thu 12:29:00 PM 38.9474 -77.4599 303° West  Level Estimated
Thu 12:30:00 PM 38.9474 -77.4599 127° Southeast  Level Estimated
Thu 12:31:00 PM 38.9474 -77.4599 303° West  Level Estimated

Login

Don't have an account? Register now (free) for customized features, flight alerts, and more!